Tobruk, Libya
Current Conditions -  °F | °C
As of 2:00 AM on Saturday 25 Oct 2014 (Local Time) from HEMM Reporting Station
Clear Clear  
Wind Chill: 72°   Ceiling: Unl
Heat Index: 72°   Visibility: 6mi
Dew Point: 48°   Wind: 8mph
Humidity: 43%   Direction: 220°SW
Pressure: 29.94"   Gusts: NA
Location:  32.08°N, 23.98°E
Report Text: HEMM 242300Z 22007KT CAVOK 22/09 Q1014 NOSIG
Loading
Personal Weather Stations






























Interactive Weather Map
Tropical Storm Tracking
New forecast layout! Learn more

10-Day Weather Forecast

Advertisements
Track Severe Weather on mobile